Time;durP1;ratioP1;P1;durP2;ratioP2;P2;SDS_P1;SDS_P2;PMS_P1;PMS_P2;Temp;Humidity;BMP_temperature;BMP_pressure;BME280_temperature;BME280_humidity;BME280_pressure;Samples;Min_cycle;Max_cycle;Signal;HPM_P1;HPM_P2
2022/05/29 00:01:07;;;;;;;16.67;6.60;;;;;;;8.07;100.00;100938.59;7393165;19;20392;-60
2022/05/29 00:03:37;;;;;;;18.70;6.10;;;;;;;8.04;100.00;100944.44;7396746;19;20423;-56
2022/05/29 00:06:07;;;;;;;28.37;6.37;;;;;;;7.93;100.00;100946.41;7393269;19;20403;-60
2022/05/29 00:08:40;;;;;;;23.27;7.10;;;;;;;7.99;100.00;100942.44;7397475;19;20454;-57
2022/05/29 00:11:13;;;;;;;21.93;6.83;;;;;;;8.01;100.00;100943.38;7392495;19;20412;-55
2022/05/29 00:13:46;;;;;;;19.30;6.47;;;;;;;8.07;100.00;100931.78;7395845;19;20447;-57
2022/05/29 00:16:16;;;;;;;19.87;6.43;;;;;;;8.00;100.00;100936.47;7393706;19;20402;-57
2022/05/29 00:18:46;;;;;;;23.50;6.53;;;;;;;7.99;100.00;100935.56;7397218;19;20400;-58
2022/05/29 00:21:16;;;;;;;17.00;6.07;;;;;;;8.03;100.00;100936.63;7392972;19;20409;-54
2022/05/29 00:23:49;;;;;;;18.53;5.87;;;;;;;8.09;100.00;100926.69;7395654;19;20419;-57
2022/05/29 00:26:19;;;;;;;23.80;6.07;;;;;;;8.05;100.00;100935.91;7392668;19;20454;-57
2022/05/29 00:28:51;;;;;;;16.70;6.70;;;;;;;8.00;100.00;100928.78;7396727;19;20395;-59
2022/05/29 00:31:21;;;;;;;21.67;6.30;;;;;;;7.97;100.00;100938.09;7393051;19;20914;-57
2022/05/29 00:33:51;;;;;;;25.47;6.60;;;;;;;7.97;100.00;100932.94;7395534;19;20432;-54
2022/05/29 00:36:21;;;;;;;23.83;6.90;;;;;;;7.92;100.00;100938.63;7391581;19;20392;-60
2022/05/29 00:38:51;;;;;;;23.13;6.10;;;;;;;7.90;100.00;100930.81;7397069;19;20399;-57
2022/05/29 00:41:24;;;;;;;17.63;5.97;;;;;;;7.86;100.00;100933.13;7392081;19;20463;-56
2022/05/29 00:44:15;;;;;;;18.93;6.50;;;;;;;7.82;100.00;100927.84;7395185;19;20433;-60
2022/05/29 00:46:49;;;;;;;15.50;5.33;;;;;;;7.88;100.00;100927.28;7390897;19;20446;-56
2022/05/29 00:49:22;;;;;;;25.13;6.87;;;;;;;7.87;100.00;100930.66;7397757;19;20394;-58
2022/05/29 00:51:54;;;;;;;27.97;6.10;;;;;;;7.90;100.00;100925.69;7390718;19;20439;-58
2022/05/29 00:54:25;;;;;;;16.53;6.57;;;;;;;7.88;100.00;100922.16;7394419;19;20445;-58
2022/05/29 00:56:55;;;;;;;22.67;6.70;;;;;;;7.90;100.00;100917.09;7390830;19;20438;-57
2022/05/29 00:59:30;;;;;;;16.47;6.07;;;;;;;7.82;100.00;100914.09;7397321;19;20902;-54
2022/05/29 01:02:02;;;;;;;26.90;6.63;;;;;;;7.83;100.00;100908.16;7390770;19;20449;-56
2022/05/29 01:04:33;;;;;;;22.50;6.63;;;;;;;7.89;100.00;100898.22;7394245;19;20494;-60
2022/05/29 01:07:06;;;;;;;17.17;6.70;;;;;;;7.88;100.00;100899.03;7388899;19;20443;-58
2022/05/29 01:09:36;;;;;;;19.93;7.07;;;;;;;7.91;100.00;100898.31;7397244;19;20424;-52
2022/05/29 01:12:09;;;;;;;26.00;7.50;;;;;;;7.90;100.00;100899.97;7389993;19;20508;-58
2022/05/29 01:14:48;;;;;;;22.70;7.60;;;;;;;7.87;100.00;100893.78;7395435;19;20391;-57
2022/05/29 01:17:24;;;;;;;28.40;6.80;;;;;;;7.82;100.00;100888.41;7387189;19;20429;-58
2022/05/29 01:20:22;;;;;;;21.27;5.97;;;;;;;7.82;100.00;100886.75;7396997;19;20387;-58
2022/05/29 01:23:25;;;;;;;23.83;6.20;;;;;;;7.80;100.00;100879.75;7389966;19;20478;-57
2022/05/29 01:26:30;;;;;;;21.80;5.47;;;;;;;7.80;100.00;100880.63;7400283;19;20390;-58
2022/05/29 01:29:04;;;;;;;23.77;6.60;;;;;;;8.11;100.00;100884.84;7399333;19;20413;-56
2022/05/29 01:31:48;;;;;;;22.90;6.70;;;;;;;8.00;100.00;100883.38;7391552;19;20421;-59
2022/05/29 01:34:26;;;;;;;23.43;5.83;;;;;;;7.91;100.00;100876.09;7397618;19;20445;-57
2022/05/29 01:37:04;;;;;;;20.93;6.47;;;;;;;7.86;100.00;100877.50;7394149;19;20949;-58
2022/05/29 01:39:36;;;;;;;20.43;6.80;;;;;;;7.91;100.00;100886.38;7399896;19;20481;-61
2022/05/29 01:42:09;;;;;;;24.53;5.80;;;;;;;7.88;100.00;100886.19;7393661;19;20792;-58
2022/05/29 01:44:45;;;;;;;23.70;7.07;;;;;;;7.86;100.00;100880.09;7399292;19;20391;-58
2022/05/29 01:47:18;;;;;;;20.03;6.60;;;;;;;7.89;100.00;100881.94;7394150;19;20781;-59
2022/05/29 01:49:51;;;;;;;22.23;6.60;;;;;;;7.86;100.00;100877.50;7399393;19;20402;-57
2022/05/29 01:52:27;;;;;;;37.00;7.20;;;;;;;7.84;100.00;100880.00;7392554;19;20419;-58
2022/05/29 01:55:00;;;;;;;27.70;7.10;;;;;;;7.86;100.00;100882.66;7397906;19;20394;-59
2022/05/29 01:57:32;;;;;;;34.23;7.60;;;;;;;7.89;100.00;100877.66;7393994;19;20415;-58
2022/05/29 02:00:09;;;;;;;22.10;8.03;;;;;;;7.89;100.00;100880.25;7399032;19;20388;-58
2022/05/29 02:02:48;;;;;;;22.20;7.40;;;;;;;7.88;100.00;100881.03;7394927;19;20454;-58
2022/05/29 02:05:21;;;;;;;24.30;6.47;;;;;;;7.89;100.00;100876.81;7398651;19;20463;-58
2022/05/29 02:07:55;;;;;;;24.87;7.10;;;;;;;7.85;100.00;100873.19;7393360;19;20496;-58
2022/05/29 02:10:29;;;;;;;28.87;5.67;;;;;;;7.83;100.00;100877.34;7399018;19;20386;-58
2022/05/29 02:13:05;;;;;;;29.43;5.67;;;;;;;7.87;100.00;100871.56;7391367;19;20403;-59
2022/05/29 02:15:41;;;;;;;20.63;6.83;;;;;;;7.80;100.00;100872.91;7396447;19;20937;-57
2022/05/29 02:18:18;;;;;;;16.53;6.40;;;;;;;7.82;100.00;100866.19;7393642;19;20414;-59
2022/05/29 02:20:53;;;;;;;22.53;9.47;;;;;;;7.88;100.00;100870.75;7398502;19;20394;-57
2022/05/29 02:23:26;;;;;;;28.97;6.97;;;;;;;7.84;100.00;100869.72;7391751;19;20440;-58
2022/05/29 02:25:57;;;;;;;20.37;7.63;;;;;;;7.91;100.00;100870.06;7398239;19;20398;-58
2022/05/29 02:28:30;;;;;;;28.80;5.80;;;;;;;7.89;100.00;100871.66;7392395;19;20419;-59
2022/05/29 02:31:11;;;;;;;20.40;5.90;;;;;;;7.84;100.00;100871.38;7397517;19;20928;-59
2022/05/29 02:33:59;;;;;;;18.83;6.60;;;;;;;7.86;100.00;100866.34;7398254;19;20530;-57
2022/05/29 02:36:38;;;;;;;30.00;7.70;;;;;;;7.88;100.00;100870.75;7393095;19;20422;-60
2022/05/29 02:39:20;;;;;;;25.20;6.50;;;;;;;7.88;100.00;100865.63;7401540;19;20401;-59
2022/05/29 02:41:58;;;;;;;16.73;5.90;;;;;;;7.95;100.00;100865.16;7390602;19;20432;-60
2022/05/29 02:44:40;;;;;;;25.87;5.80;;;;;;;8.17;100.00;100868.91;7395111;19;20431;-60
2022/05/29 02:47:21;;;;;;;21.87;5.80;;;;;;;8.01;100.00;100866.28;7390698;19;20423;-57
2022/05/29 02:50:02;;;;;;;24.17;5.10;;;;;;;7.99;100.00;100875.63;7397204;19;20807;-59
2022/05/29 02:52:33;;;;;;;29.30;5.83;;;;;;;8.02;100.00;100870.63;7390942;19;20433;-59
2022/05/29 02:55:02;;;;;;;20.00;6.67;;;;;;;8.00;100.00;100870.53;7396178;19;20383;-56
2022/05/29 02:57:33;;;;;;;13.23;5.67;;;;;;;7.93;100.00;100874.47;7391726;19;20779;-57
2022/05/29 03:00:11;;;;;;;15.33;5.30;;;;;;;7.97;100.00;100871.28;7398440;19;20418;-56
2022/05/29 03:02:49;;;;;;;17.40;4.90;;;;;;;7.91;100.00;100865.81;7390434;19;20461;-59
2022/05/29 03:05:25;;;;;;;19.07;5.50;;;;;;;7.93;100.00;100864.19;7397282;19;20416;-58
2022/05/29 03:08:12;;;;;;;15.93;5.33;;;;;;;7.90;100.00;100861.44;7390398;19;20417;-57
2022/05/29 03:10:44;;;;;;;19.47;6.00;;;;;;;7.95;100.00;100857.44;7396808;19;20451;-58
2022/05/29 03:13:18;;;;;;;15.97;5.30;;;;;;;7.91;100.00;100860.66;7388974;19;20407;-57
2022/05/29 03:15:53;;;;;;;17.50;5.20;;;;;;;7.89;100.00;100859.69;7395172;19;20384;-60
2022/05/29 03:18:37;;;;;;;24.40;5.70;;;;;;;8.00;100.00;100870.53;7390889;19;20411;-55
2022/05/29 03:21:11;;;;;;;22.07;5.40;;;;;;;7.93;100.00;100860.72;7391274;19;20387;-63
2022/05/29 03:23:48;;;;;;;20.37;7.93;;;;;;;7.94;100.00;100860.81;7393646;19;20403;-58
2022/05/29 03:26:22;;;;;;;23.43;5.70;;;;;;;7.95;100.00;100856.59;7390400;19;20390;-57
2022/05/29 03:28:55;;;;;;;20.43;6.00;;;;;;;7.92;100.00;100848.69;7395735;19;20400;-53
2022/05/29 03:31:27;;;;;;;28.33;6.70;;;;;;;7.94;100.00;100844.50;7390699;19;20906;-58
2022/05/29 03:33:59;;;;;;;22.33;5.53;;;;;;;7.90;100.00;100846.03;7393558;19;20435;-59
2022/05/29 03:36:29;;;;;;;20.13;5.50;;;;;;;7.96;100.00;100843.78;7389361;19;20757;-59
2022/05/29 03:38:59;;;;;;;19.00;4.50;;;;;;;7.89;100.00;100844.28;7399174;19;20398;-53
2022/05/29 03:41:31;;;;;;;23.57;6.97;;;;;;;7.93;100.00;100846.22;7389188;19;20415;-58
2022/05/29 03:44:01;;;;;;;18.10;5.23;;;;;;;7.97;100.00;100843.03;7393133;19;20411;-55
2022/05/29 03:46:30;;;;;;;20.03;5.77;;;;;;;8.00;100.00;100837.13;7389982;19;20769;-59
2022/05/29 03:49:02;;;;;;;22.57;6.27;;;;;;;8.02;100.00;100837.22;7395465;19;20388;-57
2022/05/29 03:51:32;;;;;;;26.40;5.73;;;;;;;8.03;100.00;100829.59;7389785;19;20413;-58
2022/05/29 03:54:02;;;;;;;32.57;5.30;;;;;;;7.98;100.00;100831.03;7393801;19;20439;-56
2022/05/29 03:56:31;;;;;;;25.70;6.13;;;;;;;8.01;100.00;100825.19;7389178;19;20411;-59
2022/05/29 03:59:01;;;;;;;18.90;5.27;;;;;;;8.00;100.00;100823.41;7394954;19;20394;-60
2022/05/29 04:01:31;;;;;;;17.40;5.73;;;;;;;8.04;100.00;100825.31;7389801;19;20395;-61
2022/05/29 04:04:04;;;;;;;24.87;5.77;;;;;;;8.00;100.00;100826.00;7393303;19;20415;-58
2022/05/29 04:06:35;;;;;;;29.80;6.20;;;;;;;8.05;100.00;100827.13;7388557;19;20490;-57
2022/05/29 04:14:31;;;;;;;22.30;5.97;;;;;;;8.09;100.00;100819.66;7393032;19;20414;-58
2022/05/29 04:17:01;;;;;;;22.83;6.37;;;;;;;8.07;100.00;100820.38;7387886;19;20772;-61
2022/05/29 04:19:33;;;;;;;21.33;5.17;;;;;;;7.99;100.00;100822.53;7394522;19;20388;-57
2022/05/29 04:22:08;;;;;;;22.47;5.20;;;;;;;8.00;100.00;100814.00;7387237;19;20429;-58
2022/05/29 04:24:38;;;;;;;30.67;5.90;;;;;;;8.11;100.00;100818.03;7398314;19;20409;-59
2022/05/29 04:27:10;;;;;;;29.67;6.60;;;;;;;8.17;100.00;100817.50;7388136;19;20779;-54
2022/05/29 04:29:40;;;;;;;21.90;5.60;;;;;;;8.23;100.00;100817.81;7396733;19;20395;-56
2022/05/29 04:34:57;;;;;;;18.07;5.70;;;;;;;8.20;100.00;100814.19;7394053;19;20714;-60
2022/05/29 04:37:30;;;;;;;23.63;7.70;;;;;;;8.20;100.00;100815.06;7387115;19;20409;-58
2022/05/29 04:39:59;;;;;;;18.10;5.20;;;;;;;8.23;100.00;100814.34;7393461;19;20372;-61
2022/05/29 04:42:29;;;;;;;31.83;6.20;;;;;;;8.24;100.00;100811.88;7386827;19;20459;-60
2022/05/29 04:44:59;;;;;;;19.57;5.43;;;;;;;8.17;100.00;100814.91;7393239;19;20384;-60
2022/05/29 04:47:28;;;;;;;23.13;7.03;;;;;;;8.22;100.00;100810.88;7386582;19;20779;-55
2022/05/29 04:50:00;;;;;;;20.83;6.20;;;;;;;8.30;100.00;100813.00;7393133;19;20376;-58
2022/05/29 04:52:30;;;;;;;28.30;5.80;;;;;;;8.35;100.00;100814.09;7385595;19;20423;-60
2022/05/29 04:55:00;;;;;;;29.67;6.57;;;;;;;8.22;100.00;100804.88;7397818;19;20399;-58
2022/05/29 04:57:29;;;;;;;32.63;7.47;;;;;;;8.29;100.00;100806.94;7394226;19;20499;-58
2022/05/29 04:59:59;;;;;;;22.83;6.77;;;;;;;8.24;100.00;100803.25;7400651;19;20390;-59
2022/05/29 05:02:29;;;;;;;24.00;6.00;;;;;;;8.29;100.00;100800.91;7391673;19;20437;-60
2022/05/29 05:05:01;;;;;;;21.57;6.03;;;;;;;8.26;100.00;100800.78;7400763;19;20387;-59
2022/05/29 05:07:31;;;;;;;23.53;6.40;;;;;;;8.33;100.00;100808.00;7395769;19;20410;-57
2022/05/29 05:10:00;;;;;;;24.33;7.33;;;;;;;8.31;100.00;100801.91;7400396;19;20463;-57
2022/05/29 05:12:30;;;;;;;32.17;6.40;;;;;;;8.27;100.00;100802.53;7393083;19;20426;-58
2022/05/29 05:14:59;;;;;;;24.17;8.10;;;;;;;8.31;100.00;100795.06;7400293;19;20957;-53
2022/05/29 05:17:29;;;;;;;20.53;5.27;;;;;;;8.33;100.00;100795.13;7394498;19;20842;-57
2022/05/29 05:20:01;;;;;;;17.33;5.03;;;;;;;8.34;100.00;100800.38;7399947;19;20390;-57
2022/05/29 05:22:31;;;;;;;27.73;6.50;;;;;;;8.45;100.00;100798.34;7393156;19;20445;-58
2022/05/29 05:25:01;;;;;;;22.10;5.30;;;;;;;8.47;100.00;100801.84;7398146;19;20466;-57
2022/05/29 05:27:30;;;;;;;25.90;5.90;;;;;;;8.48;100.00;100803.66;7394591;19;20415;-56
2022/05/29 05:30:00;;;;;;;21.27;6.57;;;;;;;8.52;100.00;100804.72;7399666;19;20387;-58
2022/05/29 05:32:30;;;;;;;30.87;8.53;;;;;;;8.56;100.00;100805.75;7393056;19;20501;-57
2022/05/29 05:35:03;;;;;;;20.10;5.50;;;;;;;8.58;100.00;100804.13;7399391;19;20391;-56
2022/05/29 05:37:34;;;;;;;58.33;14.50;;;;;;;8.53;100.00;100806.50;7393088;19;20518;-61
2022/05/29 05:40:04;;;;;;;17.90;5.70;;;;;;;8.54;100.00;100802.22;7399467;19;20388;-59
2022/05/29 05:42:34;;;;;;;17.17;5.03;;;;;;;8.58;100.00;100799.00;7392080;19;20437;-55
2022/05/29 05:45:04;;;;;;;21.47;6.67;;;;;;;8.60;100.00;100807.66;7398838;19;20736;-58
2022/05/29 05:47:34;;;;;;;19.00;5.60;;;;;;;8.72;100.00;100810.00;7392707;19;20419;-60
2022/05/29 05:50:07;;;;;;;20.50;5.97;;;;;;;8.76;100.00;100805.06;7398999;19;20395;-59
2022/05/29 05:52:36;;;;;;;25.10;7.10;;;;;;;8.81;100.00;100813.00;7392694;19;20422;-54
2022/05/29 05:55:06;;;;;;;18.90;5.60;;;;;;;8.77;100.00;100811.09;7398652;19;20387;-52
2022/05/29 05:57:36;;;;;;;15.53;5.40;;;;;;;8.76;100.00;100805.06;7392531;19;20443;-55
2022/05/29 06:00:07;;;;;;;22.40;5.20;;;;;;;8.91;100.00;100809.19;7398756;19;20891;-60
2022/05/29 06:02:37;;;;;;;23.27;6.27;;;;;;;8.90;100.00;100812.59;7389592;19;20435;-58
2022/05/29 06:05:10;;;;;;;25.17;5.00;;;;;;;9.03;100.00;100814.94;7397367;19;20384;-60
2022/05/29 06:07:40;;;;;;;18.30;4.20;;;;;;;9.14;100.00;100822.31;7391873;19;20510;-54
2022/05/29 06:10:11;;;;;;;19.57;4.50;;;;;;;9.14;100.00;100827.47;7398273;19;20388;-59
2022/05/29 06:12:40;;;;;;;13.20;3.87;;;;;;;9.07;100.00;100827.97;7389733;19;20431;-53
2022/05/29 06:15:11;;;;;;;18.00;6.30;;;;;;;9.18;100.00;100831.97;7398572;19;20459;-57
2022/05/29 06:17:41;;;;;;;11.33;3.93;;;;;;;9.21;100.00;100832.09;7392769;19;20423;-54
2022/05/29 06:20:14;;;;;;;18.07;4.57;;;;;;;9.42;100.00;100839.09;7397902;19;20465;-58
2022/05/29 06:22:44;;;;;;;13.27;4.33;;;;;;;9.35;100.00;100837.03;7391133;19;20423;-58
2022/05/29 06:25:14;;;;;;;9.37;3.30;;;;;;;9.25;100.00;100841.75;7398025;19;20402;-59
2022/05/29 06:27:46;;;;;;;10.97;3.47;;;;;;;9.29;100.00;100851.38;7396542;19;20534;-58
2022/05/29 06:30:17;;;;;;;14.30;4.30;;;;;;;9.46;100.00;100848.72;7397694;19;20398;-59
2022/05/29 06:32:47;;;;;;;15.10;3.47;;;;;;;9.35;100.00;100857.63;7391585;19;20443;-58
2022/05/29 06:35:19;;;;;;;11.13;3.63;;;;;;;9.34;100.00;100871.31;7397901;19;20463;-58
2022/05/29 06:37:49;;;;;;;13.70;4.63;;;;;;;9.47;100.00;100868.53;7390972;19;20478;-56
2022/05/29 06:40:19;;;;;;;10.27;3.13;;;;;;;9.54;100.00;100859.41;7397890;19;20399;-57
2022/05/29 06:42:48;;;;;;;13.60;4.80;;;;;;;9.61;100.00;100860.56;7389146;19;20431;-60
2022/05/29 06:45:18;;;;;;;10.30;3.70;;;;;;;9.71;100.00;100867.94;7397138;19;20409;-59
2022/05/29 06:47:48;;;;;;;13.73;3.67;;;;;;;9.74;100.00;100868.06;7391847;19;20514;-58
2022/05/29 06:50:20;;;;;;;14.53;3.63;;;;;;;9.78;100.00;100869.97;7397320;19;20716;-55
2022/05/29 06:52:50;;;;;;;15.00;3.80;;;;;;;9.67;100.00;100874.63;7389559;19;20421;-58
2022/05/29 06:55:21;;;;;;;13.70;3.90;;;;;;;9.85;100.00;100882.34;7397236;19;20906;-60
2022/05/29 06:57:51;;;;;;;15.13;3.70;;;;;;;9.63;100.00;100879.59;7390609;19;20446;-59
2022/05/29 07:08:33;;;;;;;16.23;3.83;;;;;;;10.00;100.00;100884.75;7394774;19;20425;-58
2022/05/29 07:11:05;;;;;;;14.20;4.30;;;;;;;9.95;100.00;100885.34;7396622;19;20384;-53
2022/05/29 07:13:35;;;;;;;12.33;3.10;;;;;;;9.82;100.00;100894.19;7394131;19;20937;-59
2022/05/29 07:16:05;;;;;;;11.13;4.13;;;;;;;9.79;100.00;100887.19;7395739;19;20384;-55
2022/05/29 07:18:36;;;;;;;15.33;5.60;;;;;;;10.08;100.00;100895.41;7392109;19;20439;-54
2022/05/29 07:21:08;;;;;;;11.73;3.63;;;;;;;9.97;100.00;100891.47;7394861;19;20387;-61
2022/05/29 07:23:38;;;;;;;16.53;4.67;;;;;;;10.32;100.00;100894.78;7393379;19;20459;-60
2022/05/29 07:26:08;;;;;;;26.60;4.50;;;;;;;10.03;100.00;100891.75;7390008;19;20409;-57
2022/05/29 07:28:37;;;;;;;14.73;3.97;;;;;;;10.09;100.00;100891.13;7395226;19;20394;-57
2022/05/29 07:31:07;;;;;;;21.70;7.97;;;;;;;10.12;100.00;100892.16;7389174;19;20388;-54
2022/05/29 07:33:38;;;;;;;19.07;5.60;;;;;;;10.22;100.00;100893.47;7393539;19;20411;-54
2022/05/29 07:36:12;;;;;;;25.13;8.30;;;;;;;10.12;100.00;100897.31;7389897;19;20393;-55
2022/05/29 07:38:42;;;;;;;31.27;6.20;;;;;;;10.13;100.00;100893.03;7396408;19;20414;-58
2022/05/29 07:43:54;;;;;;;22.03;5.23;;;;;;;10.17;100.00;100894.06;7392792;19;20407;-60
2022/05/29 07:46:24;;;;;;;15.23;4.77;;;;;;;10.08;100.00;100899.69;7389246;19;20394;-61
2022/05/29 07:48:54;;;;;;;17.23;4.70;;;;;;;10.22;100.00;100897.75;7394775;19;20427;-57
2022/05/29 07:51:26;;;;;;;25.30;5.07;;;;;;;10.34;100.00;100900.88;7390223;19;20451;-61
2022/05/29 07:53:57;;;;;;;16.40;4.03;;;;;;;10.24;100.00;100896.09;7392895;19;20418;-56
2022/05/29 07:56:27;;;;;;;24.37;6.33;;;;;;;10.25;100.00;100896.19;7390085;19;20782;-57
2022/05/29 07:58:57;;;;;;;21.10;4.60;;;;;;;10.41;100.00;100899.44;7393036;19;20480;-50
2022/05/29 08:01:27;;;;;;;15.90;5.63;;;;;;;10.47;100.00;100893.72;7388570;19;20427;-56
2022/05/29 08:03:57;;;;;;;20.73;4.80;;;;;;;10.52;100.00;100893.09;7392845;19;20411;-57
2022/05/29 08:06:29;;;;;;;19.83;5.00;;;;;;;10.62;100.00;100902.13;7387478;19;20426;-54
2022/05/29 08:08:59;;;;;;;18.03;4.67;;;;;;;10.77;100.00;100901.03;7393894;19;20387;-57
2022/05/29 08:11:28;;;;;;;22.20;6.07;;;;;;;10.83;100.00;100892.66;7384201;19;20410;-54
2022/05/29 08:13:58;;;;;;;20.83;4.97;;;;;;;10.84;100.00;100890.16;7395649;19;20765;-53
2022/05/29 08:16:27;;;;;;;23.37;5.47;;;;;;;10.92;100.00;100898.25;7388823;19;20754;-56
2022/05/29 08:18:57;;;;;;;24.40;8.27;;;;;;;10.71;100.00;100895.63;7392453;19;20405;-56
2022/05/29 08:21:29;;;;;;;17.93;6.47;;;;;;;10.84;100.00;100899.59;7387689;19;20760;-53
2022/05/29 08:32:25;;;;;;;23.33;8.70;;;;;;;10.72;100.00;100894.78;7386068;19;20427;-59
2022/05/29 08:34:55;;;;;;;29.53;11.93;;;;;;;10.69;100.00;100897.22;7397302;19;20392;-55
2022/05/29 08:37:27;;;;;;;27.40;7.20;;;;;;;10.61;100.00;100892.63;7381398;19;20446;-55
2022/05/29 08:39:56;;;;;;;22.53;6.53;;;;;;;10.75;100.00;100894.91;7393381;19;20389;-56
2022/05/29 08:42:29;;;;;;;45.13;13.77;;;;;;;10.73;100.00;100889.72;7375217;19;20433;-51
2022/05/29 08:44:59;;;;;;;37.03;10.77;;;;;;;10.79;100.00;100886.50;7392191;19;20410;-54
2022/05/29 08:47:31;;;;;;;15.90;5.23;;;;;;;10.93;100.00;100880.22;7387096;19;20422;-56
2022/05/29 08:50:05;;;;;;;80.23;20.20;;;;;;;10.88;100.00;100876.56;7393070;19;20412;-56
2022/05/29 08:52:59;;;;;;;28.77;9.10;;;;;;;10.93;100.00;100880.22;7387197;19;20527;-56
2022/05/29 08:55:32;;;;;;;61.83;15.43;;;;;;;11.10;100.00;100877.47;7393240;19;20390;-56
2022/05/29 08:58:15;;;;;;;24.27;6.10;;;;;;;11.23;100.00;100870.22;7385695;19;20513;-54
2022/05/29 09:00:51;;;;;;;30.30;8.97;;;;;;;11.24;100.00;100869.41;7395789;19;20419;-56
2022/05/29 09:03:39;;;;;;;15.53;4.57;;;;;;;11.18;100.00;100863.16;7386328;19;20509;-58
2022/05/29 09:06:12;;;;;;;13.90;5.20;;;;;;;11.14;100.00;100865.56;7384018;19;20387;-50
2022/05/29 09:08:46;;;;;;;13.80;4.13;;;;;;;11.31;100.00;100866.25;7392330;19;20388;-53
2022/05/29 09:11:17;;;;;;;15.67;4.50;;;;;;;11.55;100.00;100857.72;7386648;19;20384;-57
2022/05/29 09:13:52;;;;;;;17.70;4.97;;;;;;;11.50;100.00;100856.66;7390060;19;20434;-55
2022/05/29 09:16:24;;;;;;;14.10;4.63;;;;;;;11.44;100.00;100852.13;7386143;19;20385;-56
2022/05/29 09:19:05;;;;;;;23.77;9.37;;;;;;;11.78;100.00;100847.41;7390757;19;20403;-56
2022/05/29 09:21:51;;;;;;;16.27;4.20;;;;;;;11.73;100.00;100842.94;7385972;19;20481;-59
2022/05/29 09:24:59;;;;;;;23.63;5.43;;;;;;;11.77;100.00;100835.28;7390807;19;20772;-57
2022/05/29 09:27:32;;;;;;;17.03;6.10;;;;;;;12.00;100.00;100834.44;7385574;19;20422;-54
2022/05/29 09:30:01;;;;;;;42.70;11.33;;;;;;;12.08;100.00;100826.13;7391750;19;20390;-53
2022/05/29 09:32:34;;;;;;;27.03;5.13;;;;;;;11.82;100.00;100821.72;7386817;19;20442;-52
2022/05/29 09:35:11;;;;;;;45.97;10.80;;;;;;;11.52;100.00;100813.66;7391454;19;20382;-56
2022/05/29 09:37:47;;;;;;;13.47;3.97;;;;;;;11.54;100.00;100806.88;7379045;19;20440;-55
2022/05/29 09:40:20;;;;;;;13.40;4.90;;;;;;;11.72;100.00;100825.66;7393715;19;20396;-52
2022/05/29 09:42:54;;;;;;;14.97;3.20;;;;;;;11.74;100.00;100818.84;7391411;19;20426;-56
2022/05/29 09:45:30;;;;;;;9.40;3.03;;;;;;;11.47;100.00;100831.56;7398964;19;20386;-53
2022/05/29 09:50:46;;;;;;;20.03;4.53;;;;;;;11.06;100.00;100844.59;7398776;19;20400;-56
2022/05/29 09:53:19;;;;;;;12.63;3.83;;;;;;;10.86;100.00;100849.81;7390723;19;20423;-57
2022/05/29 09:55:58;;;;;;;13.10;3.83;;;;;;;10.83;100.00;100857.44;7398365;19;20390;-55
2022/05/29 09:58:47;;;;;;;24.53;10.00;;;;;;;11.02;100.00;100859.06;7392917;19;20441;-53
2022/05/29 10:01:29;;;;;;;15.40;4.50;;;;;;;11.14;100.00;100863.88;7393038;19;20376;-53
2022/05/29 10:04:00;;;;;;;10.53;3.67;;;;;;;11.14;100.00;100863.88;7395483;19;20395;-57
2022/05/29 10:06:33;;;;;;;9.17;3.50;;;;;;;10.94;100.00;100861.31;7392189;19;20483;-58
2022/05/29 10:09:17;;;;;;;10.87;3.40;;;;;;;10.77;100.00;100852.00;7397958;19;20500;-57
2022/05/29 10:11:48;;;;;;;10.53;4.77;;;;;;;10.92;100.00;100856.94;7390824;19;20443;-54
2022/05/29 10:14:27;;;;;;;13.83;3.90;;;;;;;10.85;100.00;100850.63;7396302;19;20429;-57
2022/05/29 10:16:57;;;;;;;17.90;5.17;;;;;;;10.88;100.00;100850.75;7391648;19;20869;-56
2022/05/29 10:19:37;;;;;;;8.27;3.50;;;;;;;10.97;100.00;100845.09;7396526;19;20384;-56
2022/05/29 10:22:13;;;;;;;11.83;3.20;;;;;;;10.98;100.00;100851.13;7390237;19;20417;-56
2022/05/29 10:24:43;;;;;;;12.30;3.53;;;;;;;10.96;100.00;100848.47;7401982;19;20413;-53
2022/05/29 10:27:17;;;;;;;9.47;4.00;;;;;;;11.02;100.00;100848.75;7391751;19;20427;-57
2022/05/29 10:29:54;;;;;;;14.33;4.00;;;;;;;11.27;100.00;100841.13;7397577;19;20382;-56
2022/05/29 10:32:26;;;;;;;14.47;4.93;;;;;;;11.23;100.00;100842.69;7393371;19;20412;-57
2022/05/29 10:35:20;;;;;;;9.07;3.03;;;;;;;11.15;100.00;100839.81;7397160;19;20391;-55
2022/05/29 10:37:52;;;;;;;50.80;14.23;;;;;;;11.15;100.00;100834.66;7391971;19;20448;-54
2022/05/29 10:40:25;;;;;;;13.10;3.80;;;;;;;11.21;100.00;100837.47;7395614;19;20388;-55
2022/05/29 10:43:00;;;;;;;28.13;7.47;;;;;;;11.32;100.00;100837.00;7389167;19;20419;-58
2022/05/29 10:45:34;;;;;;;17.50;4.07;;;;;;;11.23;100.00;100831.50;7396271;19;20381;-56
2022/05/29 10:48:28;;;;;;;20.77;6.30;;;;;;;11.34;100.00;100836.25;7389447;19;20421;-52
2022/05/29 10:51:08;;;;;;;9.63;3.23;;;;;;;11.33;100.00;100833.59;7396562;19;20386;-54
2022/05/29 10:53:49;;;;;;;49.93;12.87;;;;;;;11.45;100.00;100826.34;7394687;19;20743;-58
2022/05/29 10:56:28;;;;;;;10.70;3.50;;;;;;;11.37;100.00;100814.84;7392384;19;20415;-55
2022/05/29 10:59:33;;;;;;;13.17;3.53;;;;;;;11.42;100.00;100821.06;7395901;19;20385;-58
2022/05/29 11:05:11;;;;;;;11.63;4.47;;;;;;;11.25;100.00;100822.09;7398192;19;20934;-59
2022/05/29 11:07:48;;;;;;;13.20;3.43;;;;;;;11.05;100.00;100832.50;7390159;19;20445;-54
2022/05/29 11:10:24;;;;;;;16.27;4.30;;;;;;;11.06;100.00;100823.94;7400582;19;20408;-54
2022/05/29 11:13:12;;;;;;;14.90;4.37;;;;;;;11.09;100.00;100824.06;7386668;19;20403;-57
2022/05/29 11:15:46;;;;;;;15.87;4.03;;;;;;;11.08;100.00;100812.84;7396434;19;20462;-54
2022/05/29 11:18:45;;;;;;;14.20;4.43;;;;;;;11.04;100.00;100825.56;7390896;19;20414;-57
2022/05/29 11:21:21;;;;;;;16.73;4.07;;;;;;;10.82;100.00;100824.66;7390817;19;20381;-55
2022/05/29 11:24:01;;;;;;;12.37;3.83;;;;;;;10.88;100.00;100819.75;7393695;19;20472;-56
2022/05/29 11:26:42;;;;;;;15.10;3.67;;;;;;;10.83;100.00;100818.72;7390447;19;20414;-54
2022/05/29 11:29:31;;;;;;;14.83;4.20;;;;;;;10.75;100.00;100820.06;7394782;19;20395;-59
2022/05/29 11:32:26;;;;;;;15.97;4.10;;;;;;;10.48;100.00;100820.66;7389011;19;20427;-55
2022/05/29 11:35:11;;;;;;;9.80;3.60;;;;;;;10.59;100.00;100815.97;7395438;19;20387;-57
2022/05/29 11:38:24;;;;;;;12.60;3.10;;;;;;;10.72;100.00;100807.91;7390747;19;20455;-56
2022/05/29 11:40:58;;;;;;;11.57;3.23;;;;;;;10.74;100.00;100802.84;7393721;19;20387;-59
2022/05/29 11:43:31;;;;;;;8.33;3.10;;;;;;;10.85;100.00;100808.44;7386332;19;20406;-59
2022/05/29 11:51:42;;;;;;;13.00;3.10;;;;;;;10.72;100.00;100807.91;7389667;19;20494;-58
2022/05/29 11:54:19;;;;;;;7.50;2.97;;;;;;;10.78;100.00;100812.47;7393317;19;20433;-57
2022/05/29 11:56:53;;;;;;;14.60;3.77;;;;;;;10.71;100.00;100806.16;7388225;19;20420;-53
2022/05/29 11:59:27;;;;;;;13.30;3.27;;;;;;;10.78;100.00;100803.00;7394738;19;20381;-57
2022/05/29 12:02:04;;;;;;;28.97;8.63;;;;;;;10.83;100.00;100805.81;7387281;19;20494;-57
2022/05/29 12:04:36;;;;;;;42.30;11.30;;;;;;;10.84;100.00;100802.41;7395174;19;20525;-58
2022/05/29 12:07:12;;;;;;;13.47;4.10;;;;;;;10.82;100.00;100804.03;7386594;19;20426;-54
2022/05/29 12:09:47;;;;;;;13.40;4.03;;;;;;;10.90;100.00;100801.78;7396443;19;20384;-55
2022/05/29 12:12:19;;;;;;;23.70;7.10;;;;;;;10.80;100.00;100801.41;7383898;19;20425;-53
2022/05/29 12:14:54;;;;;;;19.00;5.80;;;;;;;10.82;100.00;100795.41;7394169;19;20401;-54
2022/05/29 12:17:26;;;;;;;10.80;3.10;;;;;;;10.71;100.00;100801.00;7388908;19;20943;-56
2022/05/29 12:20:01;;;;;;;13.73;4.00;;;;;;;10.73;100.00;100803.66;7393401;19;20390;-52
2022/05/29 12:22:38;;;;;;;11.10;3.10;;;;;;;10.87;100.00;100797.34;7386768;19;20495;-56
2022/05/29 12:25:21;;;;;;;11.20;3.13;;;;;;;10.83;100.00;100800.66;7393690;19;20407;-53